Midnight, Mississippi
Current Conditions -  °F | °C
As of 7:53 AM on Thursday 27 Nov 2014 (Local Time) from KGLH Reporting Station
Clear Clear  
Wind Chill: 34°   Ceiling: Unl
Heat Index: 40°   Visibility: 10mi
Dew Point: 30°   Wind: 9mph
Humidity: 68%   Direction: 330°NNW
Pressure: 30.49"   Gusts: NA
Location:  33.05°N, 90.57°W
Report Text: KGLH 271353Z AUTO 33008KT 10SM CLR 04/M01 A3049 RMK AO2 SLP331 T00441011
Loading
Personal Weather Stations






























Interactive Weather Map New forecast layout! Learn more

10-Day Weather Forecast

Advertisements
Track Severe Weather on mobile